Time;durP1;ratioP1;P1;durP2;ratioP2;P2;SDS_P1;SDS_P2;PMS_P1;PMS_P2;Temp;Humidity;BMP_temperature;BMP_pressure;BME280_temperature;BME280_humidity;BME280_pressure;Samples;Min_cycle;Max_cycle;Signal;HPM_P1;HPM_P2
2023/07/03 00:00:15;;;;;;;10.65;3.58;;;20.00;41.70;;;;;;4905737;29;20505;-56
2023/07/03 00:02:43;;;;;;;19.00;3.83;;;19.90;41.70;;;;;;4905673;29;20405;-56
2023/07/03 00:05:11;;;;;;;17.38;3.95;;;19.90;41.50;;;;;;4903773;29;20428;-57
2023/07/03 00:07:39;;;;;;;20.38;4.85;;;19.90;41.70;;;;;;4905505;29;20492;-55
2023/07/03 00:10:08;;;;;;;16.88;3.63;;;19.90;41.50;;;;;;4904625;29;20493;-55
2023/07/03 00:12:36;;;;;;;17.38;3.67;;;19.90;41.40;;;;;;4902458;29;20523;-56
2023/07/03 00:15:05;;;;;;;18.65;4.38;;;19.90;41.50;;;;;;4904557;29;20055;-54
2023/07/03 00:17:32;;;;;;;13.35;3.25;;;19.90;41.70;;;;;;4906040;29;20052;-57
2023/07/03 00:19:59;;;;;;;18.33;3.53;;;19.90;41.70;;;;;;4901245;29;20052;-53
2023/07/03 00:22:26;;;;;;;13.85;2.88;;;19.80;41.80;;;;;;4905929;29;20055;-56
2023/07/03 00:24:53;;;;;;;13.75;3.60;;;19.80;41.90;;;;;;4904740;29;20048;-57
2023/07/03 00:27:21;;;;;;;12.90;3.88;;;19.80;42.00;;;;;;4905571;29;20059;-56
2023/07/03 00:29:49;;;;;;;17.08;4.03;;;19.80;41.90;;;;;;4904174;29;20059;-57
2023/07/03 00:32:16;;;;;;;11.95;4.07;;;19.80;41.90;;;;;;4905253;29;20515;-56
2023/07/03 00:34:44;;;;;;;16.05;3.90;;;19.80;41.90;;;;;;4904547;29;20059;-57
2023/07/03 00:37:11;;;;;;;17.48;4.30;;;19.80;42.00;;;;;;4905097;29;20063;-56
2023/07/03 00:39:38;;;;;;;14.23;3.75;;;19.90;42.20;;;;;;4903671;29;20068;-57
2023/07/03 00:42:06;;;;;;;11.63;3.28;;;19.90;42.30;;;;;;4904906;29;20052;-57
2023/07/03 00:44:33;;;;;;;12.20;3.20;;;19.90;42.20;;;;;;4903992;29;20432;-56
2023/07/03 00:47:03;;;;;;;11.15;3.22;;;19.90;42.10;;;;;;4904693;29;20421;-56
2023/07/03 00:49:31;;;;;;;12.02;3.20;;;19.90;42.20;;;;;;4901376;29;20440;-56
2023/07/03 00:52:00;;;;;;;12.18;3.75;;;19.90;42.20;;;;;;4901012;29;20395;-56
2023/07/03 00:54:28;;;;;;;13.05;3.90;;;19.90;42.20;;;;;;4904034;29;20063;-55
2023/07/03 00:56:55;;;;;;;11.15;3.10;;;19.90;42.30;;;;;;4905203;29;20052;-55
2023/07/03 00:59:22;;;;;;;10.90;3.17;;;19.90;42.00;;;;;;4904506;29;20052;-56
2023/07/03 01:01:54;;;;;;;12.15;3.50;;;19.90;42.10;;;;;;4929704;23;20257;-47
2023/07/03 01:04:30;;;;;;;11.13;3.38;;;19.90;42.20;;;;;;4900186;29;20058;-49
2023/07/03 01:07:01;;;;;;;10.32;3.13;;;19.90;42.20;;;;;;4900514;29;20056;-46
2023/07/03 01:09:33;;;;;;;10.15;3.38;;;19.90;42.30;;;;;;4901362;29;20055;-46
2023/07/03 01:12:01;;;;;;;12.30;3.35;;;19.90;42.40;;;;;;4902574;29;20427;-45
2023/07/03 01:14:30;;;;;;;11.40;3.28;;;19.90;42.40;;;;;;4902625;29;20063;-50
2023/07/03 01:16:59;;;;;;;14.88;4.10;;;19.90;42.50;;;;;;4901539;29;20448;-49
2023/07/03 01:19:31;;;;;;;12.38;3.53;;;19.90;42.20;;;;;;4901850;29;20067;-46
2023/07/03 01:22:04;;;;;;;14.95;3.83;;;19.90;42.40;;;;;;4902027;29;20416;-49
2023/07/03 01:24:42;;;;;;;11.40;3.70;;;19.90;42.40;;;;;;4902477;29;20126;-48
2023/07/03 01:27:12;;;;;;;9.15;3.30;;;19.80;42.40;;;;;;4900327;29;20067;-48
2023/07/03 01:29:40;;;;;;;11.02;3.38;;;19.80;42.50;;;;;;4903487;29;20488;-49
2023/07/03 01:32:11;;;;;;;16.55;3.60;;;19.80;42.60;;;;;;4903419;29;20059;-47
2023/07/03 01:34:42;;;;;;;12.32;3.33;;;19.80;42.70;;;;;;4900448;29;20056;-54
2023/07/03 01:37:11;;;;;;;12.35;3.55;;;19.70;42.70;;;;;;4900445;29;20515;-51
2023/07/03 01:39:40;;;;;;;11.07;3.35;;;19.80;42.80;;;;;;4900971;29;20052;-50
2023/07/03 01:42:08;;;;;;;19.17;4.15;;;19.80;42.90;;;;;;4901349;29;20055;-47
2023/07/03 01:44:35;;;;;;;11.50;3.75;;;19.70;42.70;;;;;;4901812;29;20059;-53
2023/07/03 01:47:09;;;;;;;13.80;3.22;;;19.70;42.70;;;;;;4902359;29;20062;-50
2023/07/03 01:49:37;;;;;;;10.10;3.25;;;19.70;42.70;;;;;;4903082;29;20105;-46
2023/07/03 01:52:11;;;;;;;16.25;3.95;;;19.60;42.60;;;;;;4900691;29;20515;-47
2023/07/03 01:54:42;;;;;;;;;;;19.60;42.70;;;;;;4901344;29;20510;-53
2023/07/03 01:57:11;;;;;;;11.75;2.80;;;19.60;42.70;;;;;;4901078;29;20401;-50
2023/07/03 01:59:40;;;;;;;15.93;3.47;;;19.60;42.60;;;;;;4901625;29;20068;-48
2023/07/03 02:02:15;;;;;;;12.90;3.95;;;19.60;42.60;;;;;;4902557;29;20064;-51
2023/07/03 02:04:46;;;;;;;16.73;3.40;;;19.50;42.60;;;;;;4902072;29;20048;-53
2023/07/03 02:07:15;;;;;;;12.65;3.33;;;19.40;42.70;;;;;;4900273;29;20052;-52
2023/07/03 02:09:44;;;;;;;13.05;3.70;;;19.40;42.70;;;;;;4902500;29;20063;-56
2023/07/03 02:12:11;;;;;;;17.08;3.72;;;19.40;42.80;;;;;;4901829;29;20060;-55
2023/07/03 02:14:38;;;;;;;11.93;3.30;;;19.30;42.80;;;;;;4901117;29;20060;-58
2023/07/03 02:17:07;;;;;;;16.58;4.22;;;19.30;42.80;;;;;;4899656;29;20065;-55
2023/07/03 02:19:34;;;;;;;10.20;3.40;;;19.30;42.90;;;;;;4902669;29;20502;-55
2023/07/03 02:22:03;;;;;;;14.65;4.20;;;19.20;43.00;;;;;;4900123;29;20056;-54
2023/07/03 02:24:30;;;;;;;15.10;3.38;;;19.10;43.00;;;;;;4902451;29;20048;-56
2023/07/03 02:26:58;;;;;;;13.48;3.22;;;19.10;43.00;;;;;;4901613;29;20056;-56
2023/07/03 02:29:25;;;;;;;12.82;3.40;;;19.10;43.10;;;;;;4898586;29;20056;-55
2023/07/03 02:31:53;;;;;;;13.38;3.47;;;19.10;43.20;;;;;;4901301;29;20055;-54
2023/07/03 02:34:21;;;;;;;13.02;3.42;;;19.00;43.20;;;;;;4898641;29;20052;-54
2023/07/03 02:36:49;;;;;;;12.52;4.25;;;19.00;43.30;;;;;;4903854;29;20381;-54
2023/07/03 02:39:16;;;;;;;13.95;3.50;;;19.00;43.40;;;;;;4906263;29;20059;-56
2023/07/03 02:41:44;;;;;;;10.48;3.40;;;18.90;43.40;;;;;;4906693;29;20492;-55
2023/07/03 02:44:12;;;;;;;11.75;3.25;;;18.90;43.40;;;;;;4907693;29;20063;-55
2023/07/03 02:46:41;;;;;;;13.07;3.17;;;18.90;43.50;;;;;;4904645;29;20427;-55
2023/07/03 02:49:09;;;;;;;11.55;3.10;;;18.80;43.40;;;;;;4902982;29;20516;-53
2023/07/03 02:51:36;;;;;;;13.70;4.25;;;18.80;43.50;;;;;;4903638;29;20055;-56
2023/07/03 02:54:05;;;;;;;12.55;3.55;;;18.80;43.60;;;;;;4906136;29;20047;-55
2023/07/03 02:56:32;;;;;;;9.57;3.03;;;18.70;43.50;;;;;;4904403;29;20064;-56
2023/07/03 02:58:59;;;;;;;9.75;3.47;;;18.70;43.50;;;;;;4905828;29;20071;-56
2023/07/03 03:01:28;;;;;;;11.52;3.03;;;18.70;43.60;;;;;;4901103;29;20413;-56
2023/07/03 03:03:58;;;;;;;14.00;3.35;;;18.60;43.60;;;;;;4905858;29;20048;-56
2023/07/03 03:06:25;;;;;;;13.68;3.85;;;18.60;43.70;;;;;;4902591;29;20063;-54
2023/07/03 03:08:52;;;;;;;10.13;3.22;;;18.60;43.70;;;;;;4905242;29;20067;-56
2023/07/03 03:11:20;;;;;;;11.43;3.42;;;18.50;43.70;;;;;;4904305;29;20063;-54
2023/07/03 03:13:47;;;;;;;18.92;4.55;;;18.50;43.80;;;;;;4904560;29;20508;-56
2023/07/03 03:16:14;;;;;;;12.60;3.17;;;18.50;43.90;;;;;;4904642;29;20052;-55
2023/07/03 03:18:42;;;;;;;15.07;3.53;;;18.50;43.90;;;;;;4905383;29;20060;-51
2023/07/03 03:21:10;;;;;;;10.80;3.22;;;18.40;44.00;;;;;;4901689;29;20067;-47
2023/07/03 03:23:37;;;;;;;13.85;3.25;;;18.40;44.00;;;;;;4904625;29;20063;-48
2023/07/03 03:26:06;;;;;;;10.20;3.20;;;18.30;44.00;;;;;;4905455;29;20412;-49
2023/07/03 03:28:34;;;;;;;12.75;2.72;;;18.40;44.20;;;;;;4903305;29;20056;-48
2023/07/03 03:31:01;;;;;;;12.55;3.15;;;18.30;44.20;;;;;;4904880;29;20060;-53
2023/07/03 03:33:28;;;;;;;11.68;3.00;;;18.30;44.30;;;;;;4896869;29;20524;-49
2023/07/03 03:35:57;;;;;;;16.50;3.33;;;18.30;44.40;;;;;;4897698;29;20059;-46
2023/07/03 03:38:24;;;;;;;17.73;3.60;;;18.20;44.40;;;;;;4905171;29;20361;-53
2023/07/03 03:40:55;;;;;;;13.18;3.53;;;18.20;44.50;;;;;;4902360;29;20072;-48
2023/07/03 03:43:23;;;;;;;11.65;3.25;;;18.10;44.60;;;;;;4902587;29;20060;-45
2023/07/03 03:45:56;;;;;;;12.95;3.25;;;18.10;44.60;;;;;;4902512;29;20123;-48
2023/07/03 03:48:25;;;;;;;14.82;3.22;;;18.10;44.80;;;;;;4903258;29;20052;-53
2023/07/03 03:50:52;;;;;;;12.55;3.22;;;18.10;44.80;;;;;;4900951;29;20060;-46
2023/07/03 03:53:22;;;;;;;15.07;3.90;;;18.10;44.80;;;;;;4906653;29;20052;-47
2023/07/03 03:55:50;;;;;;;9.40;2.97;;;18.10;44.90;;;;;;4904188;29;20508;-51
2023/07/03 03:58:18;;;;;;;17.05;3.20;;;18.00;44.90;;;;;;4904271;29;20408;-47
2023/07/03 04:00:45;;;;;;;16.48;4.00;;;18.00;45.00;;;;;;4902778;29;20052;-46
2023/07/03 04:03:13;;;;;;;9.73;2.83;;;18.00;45.10;;;;;;4900999;29;20075;-55
2023/07/03 04:05:42;;;;;;;12.57;3.20;;;18.00;45.10;;;;;;4903248;29;20420;-48
2023/07/03 04:08:09;;;;;;;14.30;3.58;;;18.00;45.20;;;;;;4906070;29;20058;-45
2023/07/03 04:10:38;;;;;;;7.80;2.70;;;17.90;45.30;;;;;;4902551;29;20064;-48
2023/07/03 04:13:05;;;;;;;14.35;3.88;;;17.90;45.40;;;;;;4901365;29;20472;-50
2023/07/03 04:15:35;;;;;;;19.35;4.65;;;17.90;45.40;;;;;;4903835;29;20079;-49
2023/07/03 04:18:02;;;;;;;12.70;3.25;;;17.90;45.50;;;;;;4899377;29;20052;-47
2023/07/03 04:20:29;;;;;;;12.77;3.00;;;17.90;45.60;;;;;;4903230;29;20079;-45
2023/07/03 04:22:57;;;;;;;13.95;3.50;;;17.90;45.70;;;;;;4903335;29;20052;-50
2023/07/03 04:25:24;;;;;;;12.10;3.15;;;17.90;45.80;;;;;;4898330;29;20055;-49
2023/07/03 04:27:52;;;;;;;11.80;3.40;;;17.90;45.90;;;;;;4903729;29;20094;-48
2023/07/03 04:30:19;;;;;;;20.42;3.65;;;17.90;46.00;;;;;;4900317;29;20063;-55
2023/07/03 04:32:53;;;;;;;10.60;3.15;;;17.90;46.20;;;;;;4901984;29;20056;-45
2023/07/03 04:35:20;;;;;;;19.75;3.97;;;17.90;46.30;;;;;;4904288;29;20048;-50
2023/07/03 04:37:49;;;;;;;12.65;3.83;;;17.90;46.30;;;;;;4902512;29;20063;-49
2023/07/03 04:40:17;;;;;;;14.57;3.92;;;17.90;46.50;;;;;;4900442;29;20055;-48
2023/07/03 04:42:45;;;;;;;18.38;6.40;;;17.90;46.50;;;;;;4903356;29;20066;-49
2023/07/03 04:45:15;;;;;;;17.90;4.90;;;17.90;46.50;;;;;;4904276;29;20052;-50
2023/07/03 04:47:43;;;;;;;17.38;3.95;;;17.90;46.60;;;;;;4902634;29;20420;-48
2023/07/03 04:50:14;;;;;;;15.45;3.38;;;17.90;46.60;;;;;;4901750;29;20063;-47
2023/07/03 04:52:42;;;;;;;15.10;3.10;;;18.00;46.70;;;;;;4901016;29;20067;-50
2023/07/03 04:55:11;;;;;;;13.57;3.25;;;18.00;46.70;;;;;;4903986;29;20071;-45
2023/07/03 04:57:38;;;;;;;15.27;3.67;;;18.00;46.80;;;;;;4900805;29;20674;-48
2023/07/03 05:00:14;;;;;;;16.90;3.78;;;18.00;46.80;;;;;;4903227;29;20056;-46
2023/07/03 05:02:44;;;;;;;14.20;3.30;;;18.10;47.00;;;;;;4883064;29;20083;-52
2023/07/03 05:05:12;;;;;;;17.05;3.50;;;18.10;47.00;;;;;;4884879;29;20059;-49
2023/07/03 05:07:39;;;;;;;14.27;3.35;;;18.10;47.00;;;;;;4883590;29;20067;-46
2023/07/03 05:10:08;;;;;;;12.70;3.60;;;18.20;47.00;;;;;;4883665;29;20057;-52
2023/07/03 05:12:36;;;;;;;17.77;4.53;;;18.20;47.00;;;;;;4884300;29;20083;-51
2023/07/03 05:15:07;;;;;;;19.42;3.75;;;18.20;47.00;;;;;;4883446;29;20520;-52
2023/07/03 05:17:35;;;;;;;27.33;9.48;;;18.20;47.00;;;;;;4884927;29;20063;-44
2023/07/03 05:20:05;;;;;;;16.52;5.68;;;18.20;47.00;;;;;;4884142;29;20067;-49
2023/07/03 05:22:33;;;;;;;12.15;3.85;;;18.30;47.10;;;;;;4884340;29;20064;-48
2023/07/03 05:25:01;;;;;;;17.27;3.53;;;18.30;47.00;;;;;;4884069;29;20155;-50
2023/07/03 05:27:28;;;;;;;13.93;3.40;;;18.30;47.00;;;;;;4883496;29;20056;-47
2023/07/03 05:29:55;;;;;;;12.50;3.42;;;18.40;47.20;;;;;;4883975;29;20063;-48
2023/07/03 05:32:22;;;;;;;14.38;3.60;;;18.40;47.20;;;;;;4885890;29;20083;-48
2023/07/03 05:34:49;;;;;;;20.02;4.30;;;18.50;47.20;;;;;;4885369;29;20068;-51
2023/07/03 05:37:18;;;;;;;21.40;4.07;;;18.40;47.30;;;;;;4884830;29;20055;-47
2023/07/03 05:39:48;;;;;;;17.20;4.40;;;18.50;47.30;;;;;;4886556;29;20488;-47
2023/07/03 05:42:16;;;;;;;12.52;3.95;;;18.50;47.30;;;;;;4884971;29;20063;-48
2023/07/03 05:44:43;;;;;;;17.55;4.22;;;18.50;47.20;;;;;;4887943;29;20056;-48
2023/07/03 05:47:11;;;;;;;11.93;3.65;;;18.60;47.30;;;;;;4884444;29;20059;-47
2023/07/03 05:49:39;;;;;;;13.00;3.80;;;18.60;47.30;;;;;;4884925;29;20083;-55
2023/07/03 05:52:07;;;;;;;14.65;3.58;;;18.60;47.30;;;;;;4884283;29;20061;-55
2023/07/03 05:54:36;;;;;;;15.13;2.83;;;18.60;47.40;;;;;;4883780;29;20536;-55
2023/07/03 05:57:06;;;;;;;13.23;3.58;;;18.70;47.40;;;;;;4882695;29;20056;-55
2023/07/03 05:59:34;;;;;;;16.17;3.92;;;18.70;47.50;;;;;;4884295;29;20067;-56
2023/07/03 06:02:02;;;;;;;16.70;4.05;;;18.70;47.50;;;;;;4893565;29;20060;-57
2023/07/03 06:04:29;;;;;;;12.80;3.95;;;18.80;47.50;;;;;;4898510;29;20056;-55
2023/07/03 06:06:57;;;;;;;10.05;3.53;;;18.80;47.50;;;;;;4896941;29;20425;-55
2023/07/03 06:09:25;;;;;;;14.80;3.75;;;18.80;47.50;;;;;;4901405;29;20071;-55
2023/07/03 06:11:55;;;;;;;12.48;3.90;;;18.80;47.40;;;;;;4901368;29;20056;-54
2023/07/03 06:14:23;;;;;;;18.10;3.75;;;18.90;47.50;;;;;;4903080;29;20056;-55
2023/07/03 06:16:51;;;;;;;14.73;3.95;;;18.90;47.40;;;;;;4900792;29;20063;-55
2023/07/03 06:19:20;;;;;;;13.20;3.92;;;18.90;47.40;;;;;;4901262;29;20063;-55
2023/07/03 06:21:47;;;;;;;16.52;3.55;;;18.90;47.40;;;;;;4900315;29;20059;-54
2023/07/03 06:24:15;;;;;;;18.83;3.65;;;19.00;47.40;;;;;;4902347;29;20060;-57
2023/07/03 06:26:43;;;;;;;17.77;3.97;;;19.00;47.50;;;;;;4902797;29;20489;-56
2023/07/03 06:29:14;;;;;;;11.35;3.15;;;19.00;47.50;;;;;;4901379;29;20053;-55
2023/07/03 06:31:41;;;;;;;14.60;4.03;;;19.00;47.50;;;;;;4900386;29;20063;-55
2023/07/03 06:34:09;;;;;;;20.35;4.32;;;19.00;47.40;;;;;;4903885;29;20511;-56
2023/07/03 06:36:36;;;;;;;11.25;3.30;;;19.10;47.50;;;;;;4899737;29;20044;-56
2023/07/03 06:39:05;;;;;;;15.88;4.25;;;19.10;47.50;;;;;;4903350;29;20048;-56
2023/07/03 06:41:35;;;;;;;12.15;3.60;;;19.10;47.50;;;;;;4900939;29;20063;-56
2023/07/03 06:44:03;;;;;;;12.18;3.72;;;19.20;47.50;;;;;;4901698;29;20060;-57
2023/07/03 06:46:33;;;;;;;16.42;4.55;;;19.20;47.50;;;;;;4899127;29;20056;-55
2023/07/03 06:49:00;;;;;;;22.02;4.28;;;19.20;47.40;;;;;;4897799;29;20051;-55
2023/07/03 06:51:27;;;;;;;17.23;6.47;;;19.20;47.40;;;;;;4902837;29;20064;-55
2023/07/03 06:53:55;;;;;;;15.85;5.18;;;19.30;47.40;;;;;;4902454;29;20056;-56
2023/07/03 06:56:23;;;;;;;13.52;3.78;;;19.30;47.40;;;;;;4899355;29;20492;-58
2023/07/03 06:58:51;;;;;;;14.60;4.10;;;19.30;47.50;;;;;;4904670;29;20071;-50
2023/07/03 07:01:21;;;;;;;13.27;3.92;;;19.40;47.50;;;;;;4899677;29;20630;-54
2023/07/03 07:03:50;;;;;;;23.67;5.57;;;19.40;47.50;;;;;;4903668;29;20780;-50
2023/07/03 07:06:20;;;;;;;18.63;5.03;;;19.40;47.50;;;;;;4901484;29;20428;-50
2023/07/03 07:08:47;;;;;;;17.63;4.15;;;19.40;47.50;;;;;;4905319;29;20401;-53
2023/07/03 07:11:17;;;;;;;16.88;4.00;;;19.50;47.50;;;;;;4903620;29;20063;-51
2023/07/03 07:13:46;;;;;;;15.38;3.55;;;19.50;47.40;;;;;;4903239;29;20068;-50
2023/07/03 07:16:14;;;;;;;10.30;3.35;;;19.60;47.40;;;;;;4903257;29;20056;-52
2023/07/03 07:18:42;;;;;;;16.08;3.88;;;19.60;47.40;;;;;;4905679;29;20505;-50
2023/07/03 07:21:11;;;;;;;13.55;3.92;;;19.70;47.40;;;;;;4904751;29;20063;-50
2023/07/03 07:23:38;;;;;;;13.32;4.00;;;19.70;47.30;;;;;;4907658;29;20397;-47
2023/07/03 07:26:05;;;;;;;19.80;4.78;;;19.80;47.40;;;;;;4905236;29;20059;-54
2023/07/03 07:28:33;;;;;;;12.55;4.22;;;19.80;47.40;;;;;;4906915;29;20048;-47
2023/07/03 07:31:01;;;;;;;12.30;3.50;;;19.80;47.40;;;;;;4905914;29;20055;-45
2023/07/03 07:33:28;;;;;;;16.48;3.90;;;19.90;47.40;;;;;;4905941;29;20060;-46
2023/07/03 07:35:55;;;;;;;14.30;3.75;;;20.00;47.40;;;;;;4903559;29;20459;-49
2023/07/03 07:38:24;;;;;;;14.30;3.63;;;20.00;47.20;;;;;;4903956;29;20421;-50
2023/07/03 07:41:01;;;;;;;14.85;4.60;;;20.10;47.10;;;;;;4906151;29;20060;-47
2023/07/03 07:43:29;;;;;;;17.15;4.85;;;20.10;46.90;;;;;;4906458;29;20063;-48
2023/07/03 07:45:56;;;;;;;16.30;4.88;;;20.10;46.90;;;;;;4906034;29;20056;-54
2023/07/03 07:48:24;;;;;;;14.80;4.60;;;20.10;46.90;;;;;;4906581;29;20056;-51
2023/07/03 07:50:51;;;;;;;19.98;4.95;;;20.20;46.90;;;;;;4906352;29;20063;-51
2023/07/03 07:53:19;;;;;;;21.00;5.53;;;20.20;46.90;;;;;;4904999;29;20059;-48
2023/07/03 07:55:47;;;;;;;13.43;4.10;;;20.20;46.80;;;;;;4905997;29;20068;-47
2023/07/03 07:58:14;;;;;;;15.10;4.10;;;20.30;46.90;;;;;;4905675;29;20048;-48
2023/07/03 08:00:43;;;;;;;16.02;4.75;;;20.30;46.90;;;;;;4906255;29;20481;-50
2023/07/03 08:03:11;;;;;;;12.20;3.92;;;20.30;46.90;;;;;;4906727;29;20083;-51
2023/07/03 08:05:38;;;;;;;16.75;4.30;;;20.30;46.80;;;;;;4906326;29;20063;-47
2023/07/03 08:08:06;;;;;;;12.98;4.03;;;20.40;46.80;;;;;;4906296;29;20487;-47
2023/07/03 08:10:33;;;;;;;15.85;4.55;;;20.40;46.70;;;;;;4905906;29;20083;-47
2023/07/03 08:13:01;;;;;;;13.02;4.20;;;20.50;46.70;;;;;;4905949;29;20496;-48
2023/07/03 08:15:29;;;;;;;11.88;4.20;;;20.50;46.60;;;;;;4906348;29;20444;-53
2023/07/03 08:17:56;;;;;;;15.38;4.60;;;20.50;46.60;;;;;;4907230;29;20071;-48
2023/07/03 08:20:23;;;;;;;20.77;4.88;;;20.50;46.50;;;;;;4904501;29;20060;-55
2023/07/03 08:22:50;;;;;;;14.00;4.85;;;20.50;46.40;;;;;;4906301;29;20060;-56
2023/07/03 08:25:17;;;;;;;9.35;3.60;;;20.50;46.40;;;;;;4905704;29;20052;-55
2023/07/03 08:27:47;;;;;;;16.92;4.47;;;20.60;46.40;;;;;;4904836;29;20056;-54
2023/07/03 08:30:15;;;;;;;14.68;4.28;;;20.60;46.40;;;;;;4907016;29;20056;-58
2023/07/03 08:32:43;;;;;;;14.15;4.50;;;20.60;46.30;;;;;;4905756;29;20079;-57
2023/07/03 08:35:11;;;;;;;13.27;4.90;;;20.60;46.20;;;;;;4905533;29;20071;-57
2023/07/03 08:37:38;;;;;;;13.88;4.38;;;20.60;46.20;;;;;;4904707;29;20060;-55
2023/07/03 08:40:07;;;;;;;15.75;4.82;;;20.60;46.20;;;;;;4906266;29;20078;-57
2023/07/03 08:42:39;;;;;;;14.70;4.90;;;20.60;46.20;;;;;;4904984;29;20060;-57
2023/07/03 08:45:10;;;;;;;11.63;4.28;;;20.60;46.40;;;;;;4905456;29;20060;-56
2023/07/03 08:47:40;;;;;;;22.88;4.70;;;20.60;46.50;;;;;;4904796;29;20359;-57
2023/07/03 08:50:08;;;;;;;12.00;3.97;;;20.60;46.70;;;;;;4904784;29;20059;-56
2023/07/03 08:52:41;;;;;;;14.80;4.55;;;20.60;46.80;;;;;;4903530;29;20449;-57
2023/07/03 08:55:24;;;;;;;11.65;4.45;;;20.60;46.80;;;;;;5058093;28;20640;-56
2023/07/03 08:57:51;;;;;;;;;;;20.70;46.90;;;;;;5056100;28;20060;-57
2023/07/03 09:00:20;;;;;;;15.18;4.72;;;20.80;46.80;;;;;;5057684;28;20303;-57
2023/07/03 09:02:53;;;;;;;23.30;5.40;;;20.80;46.80;;;;;;5050786;28;20052;-57
2023/07/03 09:05:34;;;;;;;16.17;5.00;;;20.80;46.80;;;;;;5056425;28;20504;-57
2023/07/03 09:08:05;;;;;;;15.65;5.00;;;20.90;46.90;;;;;;5053442;28;20055;-58
2023/07/03 09:10:37;;;;;;;15.55;4.65;;;20.90;46.80;;;;;;5053356;28;20055;-56
2023/07/03 09:13:09;;;;;;;12.82;4.40;;;21.00;46.70;;;;;;5054695;28;20428;-57
2023/07/03 09:15:42;;;;;;;10.05;3.67;;;21.00;46.60;;;;;;5056343;28;20060;-56
2023/07/03 09:18:14;;;;;;;13.50;4.63;;;21.00;46.40;;;;;;5057991;28;20060;-58
2023/07/03 09:20:42;;;;;;;13.23;4.82;;;21.10;46.30;;;;;;5055536;28;20053;-57
2023/07/03 09:23:20;;;;;;;13.30;4.22;;;21.10;46.20;;;;;;5056076;28;20065;-57
2023/07/03 09:25:54;;;;;;;17.50;4.60;;;21.10;45.90;;;;;;5055214;28;20063;-58
2023/07/03 09:28:22;;;;;;;13.95;4.35;;;21.10;45.80;;;;;;5055804;28;20060;-56
2023/07/03 09:30:50;;;;;;;13.30;3.78;;;21.20;45.80;;;;;;5055756;28;20053;-48
2023/07/03 09:33:19;;;;;;;13.75;4.55;;;21.10;45.50;;;;;;5057800;28;20053;-58
2023/07/03 09:35:47;;;;;;;13.25;3.65;;;21.20;45.50;;;;;;5053548;28;20508;-48
2023/07/03 09:38:17;;;;;;;14.45;3.45;;;21.20;45.30;;;;;;5055625;28;20079;-54
2023/07/03 09:40:48;;;;;;;9.80;3.80;;;21.20;44.90;;;;;;5056697;28;20057;-51
2023/07/03 09:43:20;;;;;;;9.75;3.70;;;21.20;44.70;;;;;;5044877;28;20052;-49
2023/07/03 09:45:48;;;;;;;13.80;4.60;;;21.30;44.70;;;;;;5045872;28;20052;-55
2023/07/03 09:48:24;;;;;;;11.35;3.67;;;21.30;44.60;;;;;;5047740;28;20140;-52
2023/07/03 09:50:53;;;;;;;13.57;3.90;;;21.40;43.60;;;;;;5049912;28;20059;-48
2023/07/03 09:53:22;;;;;;;11.93;3.33;;;21.40;43.40;;;;;;5044818;28;20052;-51
2023/07/03 09:55:52;;;;;;;11.10;3.45;;;21.40;43.10;;;;;;5050972;28;20049;-50
2023/07/03 09:58:25;;;;;;;11.77;3.90;;;21.50;43.20;;;;;;5046110;28;20049;-50
2023/07/03 10:00:55;;;;;;;15.05;3.95;;;21.50;43.00;;;;;;5048160;28;20072;-49
2023/07/03 10:03:24;;;;;;;11.23;3.25;;;21.60;43.10;;;;;;5048575;28;20393;-52
2023/07/03 10:05:51;;;;;;;13.45;3.88;;;21.60;43.00;;;;;;5039957;28;20053;-53
2023/07/03 10:08:22;;;;;;;12.82;4.45;;;21.60;42.70;;;;;;5034774;28;20587;-49
2023/07/03 10:10:51;;;;;;;8.15;3.40;;;21.60;42.00;;;;;;5033458;28;20045;-47
2023/07/03 10:13:24;;;;;;;13.63;4.25;;;21.60;41.50;;;;;;5033931;28;20527;-53
2023/07/03 10:15:54;;;;;;;11.35;3.65;;;21.60;41.30;;;;;;5038221;28;20394;-52
2023/07/03 10:18:26;;;;;;;12.70;4.20;;;21.60;41.40;;;;;;5039873;28;20052;-50
2023/07/03 10:20:54;;;;;;;10.57;3.40;;;21.70;41.10;;;;;;5033345;28;20049;-48
2023/07/03 10:23:24;;;;;;;8.55;3.38;;;21.70;41.20;;;;;;5037919;28;20064;-49
2023/07/03 10:25:56;;;;;;;9.25;3.72;;;21.70;41.10;;;;;;5039167;28;20384;-52
2023/07/03 10:28:31;;;;;;;8.75;3.17;;;21.80;40.70;;;;;;5038029;28;20052;-52
2023/07/03 10:31:01;;;;;;;9.07;3.45;;;21.80;40.00;;;;;;5033949;28;20696;-54
2023/07/03 10:33:33;;;;;;;7.57;3.17;;;21.80;40.00;;;;;;5039179;28;20056;-52
2023/07/03 10:36:06;;;;;;;9.10;3.42;;;21.80;40.00;;;;;;5031939;28;20057;-51
2023/07/03 10:38:38;;;;;;;8.88;3.70;;;21.80;39.80;;;;;;5034189;28;20053;-52
2023/07/03 10:41:10;;;;;;;8.50;3.10;;;21.90;39.70;;;;;;5035529;28;20065;-54
2023/07/03 10:43:44;;;;;;;13.18;3.65;;;21.90;39.40;;;;;;5036557;28;20053;-50
2023/07/03 10:46:20;;;;;;;12.32;3.25;;;21.90;39.50;;;;;;5034857;28;20063;-48
2023/07/03 10:48:48;;;;;;;9.88;4.18;;;22.00;39.50;;;;;;5035742;28;20053;-47
2023/07/03 10:51:20;;;;;;;11.40;3.67;;;22.00;39.70;;;;;;5035637;28;20060;-49
2023/07/03 10:53:53;;;;;;;10.80;3.40;;;22.10;39.20;;;;;;5034609;28;20061;-55
2023/07/03 10:56:26;;;;;;;12.07;3.92;;;22.10;38.60;;;;;;5039148;28;20577;-50
2023/07/03 10:59:07;;;;;;;9.90;3.57;;;22.10;38.20;;;;;;5041053;28;20500;-51
2023/07/03 11:01:41;;;;;;;10.40;3.63;;;22.10;38.90;;;;;;5039227;28;20052;-51
2023/07/03 11:04:18;;;;;;;7.90;2.95;;;22.10;39.00;;;;;;5040362;28;20057;-57
2023/07/03 11:06:54;;;;;;;8.55;3.25;;;22.20;38.90;;;;;;5038822;28;20072;-50
2023/07/03 11:09:30;;;;;;;12.05;3.42;;;22.20;39.00;;;;;;5036596;28;20048;-46
2023/07/03 11:12:05;;;;;;;7.05;3.03;;;22.20;39.10;;;;;;5036660;28;20060;-52
2023/07/03 11:14:45;;;;;;;8.48;3.53;;;22.30;39.10;;;;;;5034842;28;20057;-53
2023/07/03 11:17:21;;;;;;;12.02;3.25;;;22.40;38.60;;;;;;5033637;28;20068;-51
2023/07/03 11:19:57;;;;;;;9.93;3.35;;;22.40;38.30;;;;;;5028981;28;20500;-49
2023/07/03 11:22:28;;;;;;;11.88;3.45;;;22.40;37.70;;;;;;5033765;28;20056;-50
2023/07/03 11:25:05;;;;;;;10.23;3.30;;;22.50;38.00;;;;;;5028617;28;20063;-47
2023/07/03 11:27:38;;;;;;;9.93;3.28;;;22.50;37.40;;;;;;5038976;28;20053;-53
2023/07/03 11:30:09;;;;;;;12.30;3.40;;;22.50;37.30;;;;;;5032668;28;20574;-52
2023/07/03 11:32:37;;;;;;;14.63;4.00;;;22.60;37.30;;;;;;5031291;28;20053;-48
2023/07/03 11:35:08;;;;;;;9.85;3.17;;;22.60;37.30;;;;;;5035781;28;20725;-54
2023/07/03 11:37:43;;;;;;;6.25;2.95;;;22.60;37.40;;;;;;5034002;28;20067;-50
2023/07/03 11:40:29;;;;;;;9.02;3.35;;;22.70;37.70;;;;;;5037193;28;20065;-54
2023/07/03 11:43:22;;;;;;;10.90;3.67;;;22.70;38.00;;;;;;5033052;28;20672;-56
2023/07/03 11:46:03;;;;;;;8.52;3.25;;;22.80;37.70;;;;;;5034407;28;20049;-52
2023/07/03 11:48:33;;;;;;;9.90;3.45;;;22.80;37.90;;;;;;5032166;28;20057;-51
2023/07/03 11:51:03;;;;;;;9.43;3.20;;;22.90;37.60;;;;;;5029497;28;20053;-58
2023/07/03 11:53:35;;;;;;;8.45;3.47;;;22.90;37.30;;;;;;5037171;28;20064;-56
2023/07/03 11:56:02;;;;;;;11.02;3.60;;;22.90;37.30;;;;;;5038951;28;20063;-58
2023/07/03 11:58:33;;;;;;;8.07;3.50;;;23.00;36.80;;;;;;5040088;28;20052;-57
2023/07/03 12:01:30;;;;;;;7.88;3.10;;;23.00;37.10;;;;;;5036560;28;20079;-56
2023/07/03 12:03:59;;;;;;;8.85;3.30;;;23.00;37.20;;;;;;5039958;28;20063;-57
2023/07/03 12:06:47;;;;;;;14.07;3.72;;;23.10;37.20;;;;;;5040263;28;20056;-57
2023/07/03 12:09:31;;;;;;;11.90;3.30;;;23.10;36.70;;;;;;5038399;28;20434;-55
2023/07/03 12:12:20;;;;;;;11.73;3.42;;;23.10;37.00;;;;;;5036306;28;20064;-54
2023/07/03 12:14:57;;;;;;;9.45;3.42;;;23.10;37.40;;;;;;5035595;28;20428;-57
2023/07/03 12:17:28;;;;;;;10.85;3.72;;;23.20;37.50;;;;;;5038529;28;20053;-57
2023/07/03 12:19:57;;;;;;;11.55;3.83;;;23.20;37.50;;;;;;5039600;28;20079;-59
2023/07/03 12:22:28;;;;;;;7.75;3.17;;;23.20;36.50;;;;;;5039049;28;20056;-57
2023/07/03 12:25:05;;;;;;;7.00;2.97;;;23.20;37.10;;;;;;5038812;28;20053;-54
2023/07/03 12:27:32;;;;;;;9.38;3.40;;;23.30;37.40;;;;;;5038951;28;20057;-58
2023/07/03 12:30:01;;;;;;;10.48;3.58;;;23.30;37.00;;;;;;5038666;28;20057;-57
2023/07/03 12:32:31;;;;;;;9.23;3.15;;;23.40;36.90;;;;;;5039972;28;20056;-57
2023/07/03 12:35:16;;;;;;;7.70;3.08;;;23.40;36.80;;;;;;5037788;28;20401;-57
2023/07/03 12:37:46;;;;;;;7.68;3.42;;;23.40;36.30;;;;;;5038291;28;20416;-55
2023/07/03 12:40:16;;;;;;;11.20;3.80;;;23.40;36.40;;;;;;5033543;28;20063;-54
2023/07/03 12:42:46;;;;;;;11.00;3.67;;;23.40;36.10;;;;;;5038948;28;20090;-55
2023/07/03 12:45:16;;;;;;;11.02;3.75;;;23.40;36.50;;;;;;5034824;28;20075;-58
2023/07/03 12:47:46;;;;;;;9.35;3.63;;;23.40;36.70;;;;;;5032985;28;20049;-59
2023/07/03 12:50:15;;;;;;;11.57;3.72;;;23.40;35.60;;;;;;5028926;28;21508;-54